Impacts TAF Board INFO
FOR SITUATIONAL AWARENESS. NOT TO BE USED FOR FLIGHT PLANNING PURPOSES.
IDs:

KPHX - Phoenix/Sky Harbor, AZ, US

Issued at 1504 UTC 28 Jun 2017
Updated at 1538 UTC 28 Jun 2017
Potential Impact None Slight Moderate High
Time1451Z 28/16Z 28/17Z 28/18Z 28/19Z 28/20Z 28/21Z 28/22Z 28/23Z 29/00Z 29/01Z 29/02Z 29/03Z 29/04Z>>
Type OBS PRVL PRVL PRVL PRVL PRVL PRVL PRVL PRVL PRVL PRVL PRVL PRVL PRVL
VIS 10 >6 >6 >6 >6 >6 >6 >6 >6 >6 >6 >6 >6 >6
CIG -- -- -- -- -- -- -- -- -- -- -- -- -- --
Cover FEW SKC SKC SKC SKC SKC SKC SKC SKC SKC SKC SKC SKC SKC
FltCat VFR VFR VFR VFR VFR VFR VFR VFR VFR VFR VFR VFR VFR VFR
WX -- -- -- -- -- -- -- -- -- -- -- -- -- --
WDir 100 110 110 110 260 260 260 260 260 260 260 260 240 240
WSpd 6 5 5 5 10 10 10 10 10 10 10 10 7 7
WGst -- -- -- -- 17 17 17 17 17 17 17 17 -- --

Raw TAF
KPHX 281504Z 2815/2912 11005KT P6SM SKC
  FM281900 26010G17KT P6SM SKC
  FM290300 24007KT P6SM SKC
  FM290800 10005KT P6SM SKC


Raw METAR
KPHX 281451Z 10006KT 10SM FEW050 32/08 A2982 RMK AO2 SLP075 FU FEW050 T03170083 51020
KPHX 281351Z 14005KT 10SM FEW050 31/06 A2981 RMK AO2 SLP071 FU FEW050 T03060061
KPHX 281251Z 10006KT 10SM FEW035 29/06 A2978 RMK AO2 SLP060 FU FEW035 T02940061

METAR Board
Radar Display
Forecast Discussion

FOR SITUATIONAL AWARENESS. NOT TO BE USED FOR FLIGHT PLANNING PURPOSES.

Page loaded:  15:38 UTC  |   08:38 AM Pacific  |   09:38 AM Mountain  |   10:38 AM Central  |   11:38 AM Eastern

 

ADVISORIES

FORECASTS

FORECASTS

OBSERVATIONS

USER TOOLS

ABOUT US